Time;durP1;ratioP1;P1;durP2;ratioP2;P2;SDS_P1;SDS_P2;PMS_P1;PMS_P2;Temp;Humidity;BMP_temperature;BMP_pressure;BME280_temperature;BME280_humidity;BME280_pressure;Samples;Min_cycle;Max_cycle;Signal;HPM_P1;HPM_P2
2022/03/04 00:00:31;;;;;;;5.80;1.25;;;;;;;;;;2081327;28;20036;-71
2022/03/04 00:01:50;;;;;;;4.03;1.08;;;;;;;;;;2081068;28;20500;-71
2022/03/04 00:03:10;;;;;;;4.93;0.95;;;;;;;;;;2082212;28;20037;-70
2022/03/04 00:04:29;;;;;;;1.92;0.82;;;;;;;;;;2081175;28;20130;-70
2022/03/04 00:05:48;;;;;;;4.70;1.00;;;;;;;;;;2081530;28;20088;-69
2022/03/04 00:07:07;;;;;;;2.33;1.05;;;;;;;;;;2081709;28;20116;-71
2022/03/04 00:08:25;;;;;;;4.35;1.10;;;;;;;;;;2080676;28;20097;-71
2022/03/04 00:09:44;;;;;;;4.15;0.95;;;;;;;;;;2082221;28;20392;-70
2022/03/04 00:11:03;;;;;;;3.47;1.35;;;;;;;;;;2082090;28;20030;-69
2022/03/04 00:12:22;;;;;;;5.22;1.52;;;;;;;;;;2081228;28;20029;-70
2022/03/04 00:13:41;;;;;;;5.95;1.33;;;;;;;;;;2080873;28;20037;-71
2022/03/04 00:15:00;;;;;;;4.65;0.85;;;;;;;;;;2081075;28;20037;-71
2022/03/04 00:16:19;;;;;;;3.13;1.20;;;;;;;;;;2079780;28;20034;-71
2022/03/04 00:17:38;;;;;;;4.20;1.10;;;;;;;;;;2082665;28;20042;-71
2022/03/04 00:19:07;;;;;;;6.53;1.35;;;;;;;;;;2080980;28;20109;-71
2022/03/04 00:20:26;;;;;;;4.55;1.00;;;;;;;;;;2083944;28;20116;-71
2022/03/04 00:21:49;;;;;;;5.75;1.10;;;;;;;;;;2077938;28;20045;-70
2022/03/04 00:23:08;;;;;;;8.27;1.23;;;;;;;;;;2079454;28;20399;-70
2022/03/04 00:24:27;;;;;;;7.28;1.17;;;;;;;;;;2081671;28;20029;-71
2022/03/04 00:25:46;;;;;;;2.97;1.00;;;;;;;;;;2081438;28;20033;-70
2022/03/04 00:27:05;;;;;;;2.03;0.95;;;;;;;;;;2080239;28;20064;-70
2022/03/04 00:28:24;;;;;;;6.80;1.27;;;;;;;;;;2081114;28;20035;-71
2022/03/04 00:29:43;;;;;;;5.32;1.10;;;;;;;;;;2080302;28;20033;-71
2022/03/04 00:31:02;;;;;;;3.00;1.25;;;;;;;;;;2081593;28;20018;-72
2022/03/04 00:32:21;;;;;;;3.40;0.98;;;;;;;;;;2080864;28;20037;-71
2022/03/04 00:33:40;;;;;;;4.22;1.30;;;;;;;;;;2082345;28;20041;-70
2022/03/04 00:34:59;;;;;;;6.90;1.67;;;;;;;;;;2080564;28;20029;-70
2022/03/04 00:36:22;;;;;;;3.55;1.17;;;;;;;;;;2079201;28;20025;-71
2022/03/04 00:37:40;;;;;;;1.45;0.70;;;;;;;;;;2079629;28;20037;-70
2022/03/04 00:38:59;;;;;;;3.65;1.10;;;;;;;;;;2080953;28;20029;-70
2022/03/04 00:40:18;;;;;;;4.68;0.98;;;;;;;;;;2081337;28;20018;-70
2022/03/04 00:41:37;;;;;;;2.80;0.90;;;;;;;;;;2081225;28;20046;-70
2022/03/04 00:42:57;;;;;;;3.85;0.70;;;;;;;;;;2080150;28;20029;-70
2022/03/04 00:44:16;;;;;;;5.30;1.25;;;;;;;;;;2080758;28;20029;-70
2022/03/04 00:45:35;;;;;;;7.05;1.38;;;;;;;;;;2080893;28;20078;-71
2022/03/04 00:46:53;;;;;;;3.47;1.30;;;;;;;;;;2080349;28;20030;-71
2022/03/04 00:48:12;;;;;;;3.25;1.23;;;;;;;;;;2080177;28;20026;-70
2022/03/04 00:49:31;;;;;;;7.50;1.75;;;;;;;;;;2081180;28;20037;-71
2022/03/04 00:50:50;;;;;;;8.30;1.20;;;;;;;;;;2080866;28;20061;-71
2022/03/04 00:52:08;;;;;;;3.42;1.05;;;;;;;;;;2080498;28;20486;-70
2022/03/04 00:53:27;;;;;;;4.20;1.02;;;;;;;;;;2080435;28;20041;-70
2022/03/04 00:54:46;;;;;;;4.50;1.25;;;;;;;;;;2080684;28;20033;-70
2022/03/04 00:56:09;;;;;;;3.97;1.02;;;;;;;;;;2081113;28;20025;-70
2022/03/04 00:57:28;;;;;;;3.97;0.80;;;;;;;;;;2080903;28;20435;-71
2022/03/04 00:58:47;;;;;;;4.68;0.90;;;;;;;;;;2080712;28;20037;-71
2022/03/04 01:00:06;;;;;;;6.90;1.30;;;;;;;;;;2081837;28;20030;-71
2022/03/04 01:01:25;;;;;;;2.30;0.70;;;;;;;;;;2081603;28;20025;-70
2022/03/04 01:02:44;;;;;;;3.13;1.20;;;;;;;;;;2080778;28;20498;-71
2022/03/04 01:04:03;;;;;;;3.95;1.00;;;;;;;;;;2080742;28;20487;-69
2022/03/04 01:05:22;;;;;;;5.53;1.20;;;;;;;;;;2081529;28;20033;-70
2022/03/04 01:06:41;;;;;;;8.48;1.10;;;;;;;;;;2080858;28;20073;-69
2022/03/04 01:08:00;;;;;;;7.22;1.52;;;;;;;;;;2079996;28;20038;-70
2022/03/04 01:09:19;;;;;;;6.72;1.58;;;;;;;;;;2082040;28;20574;-70
2022/03/04 01:10:37;;;;;;;7.00;1.17;;;;;;;;;;2081467;28;20112;-71
2022/03/04 01:11:57;;;;;;;7.50;1.17;;;;;;;;;;2081199;28;20060;-70
2022/03/04 01:13:15;;;;;;;3.78;0.90;;;;;;;;;;2079283;28;20503;-70
2022/03/04 01:14:34;;;;;;;5.82;0.85;;;;;;;;;;2081573;28;20033;-71
2022/03/04 01:15:54;;;;;;;3.53;0.80;;;;;;;;;;2081831;28;20033;-70
2022/03/04 01:17:14;;;;;;;2.75;0.77;;;;;;;;;;2074707;28;20030;-71
2022/03/04 01:18:32;;;;;;;3.10;0.98;;;;;;;;;;2079911;28;21765;-71
2022/03/04 01:19:51;;;;;;;3.05;1.00;;;;;;;;;;2081122;28;20030;-71
2022/03/04 01:21:10;;;;;;;5.10;1.10;;;;;;;;;;2080462;28;20100;-70
2022/03/04 01:22:29;;;;;;;11.73;1.67;;;;;;;;;;2081051;28;20033;-70
2022/03/04 01:23:48;;;;;;;2.80;1.20;;;;;;;;;;2080011;28;20064;-69
2022/03/04 01:25:08;;;;;;;3.55;0.77;;;;;;;;;;2081752;28;20499;-70
2022/03/04 01:26:26;;;;;;;6.18;0.98;;;;;;;;;;2080915;28;20049;-70
2022/03/04 01:27:45;;;;;;;2.08;0.60;;;;;;;;;;2080518;28;20025;-69
2022/03/04 01:29:04;;;;;;;2.85;0.75;;;;;;;;;;2080409;28;20046;-70
2022/03/04 01:30:23;;;;;;;2.90;1.00;;;;;;;;;;2080947;28;20395;-71
2022/03/04 01:31:42;;;;;;;2.33;0.82;;;;;;;;;;2081808;28;20069;-71
2022/03/04 01:33:00;;;;;;;7.63;1.30;;;;;;;;;;2081270;28;20033;-71
2022/03/04 01:34:19;;;;;;;4.18;0.90;;;;;;;;;;2079953;28;20038;-71
2022/03/04 01:35:39;;;;;;;4.22;1.13;;;;;;;;;;2078385;28;20480;-69
2022/03/04 01:36:57;;;;;;;5.97;1.08;;;;;;;;;;2081096;28;20034;-71
2022/03/04 01:38:16;;;;;;;1.88;0.90;;;;;;;;;;2080329;28;20026;-70
2022/03/04 01:39:36;;;;;;;3.08;0.90;;;;;;;;;;2079620;28;20041;-72
2022/03/04 01:40:55;;;;;;;2.75;1.08;;;;;;;;;;2080184;28;20025;-70
2022/03/04 01:42:14;;;;;;;6.18;1.27;;;;;;;;;;2079970;28;20017;-72
2022/03/04 01:43:35;;;;;;;1.20;0.85;;;;;;;;;;2078983;28;20029;-71
2022/03/04 01:44:54;;;;;;;4.32;0.93;;;;;;;;;;2079541;28;20029;-71
2022/03/04 01:46:14;;;;;;;1.80;0.90;;;;;;;;;;2081324;28;20030;-71
2022/03/04 01:47:34;;;;;;;3.42;1.02;;;;;;;;;;2080859;28;20029;-71
2022/03/04 01:48:53;;;;;;;2.50;1.10;;;;;;;;;;2079797;28;20114;-71
2022/03/04 01:50:12;;;;;;;4.80;1.13;;;;;;;;;;2078932;28;20037;-70
2022/03/04 01:51:31;;;;;;;2.88;0.90;;;;;;;;;;2080773;28;20033;-70
2022/03/04 01:52:50;;;;;;;5.28;0.80;;;;;;;;;;2081206;28;20404;-70
2022/03/04 01:54:08;;;;;;;6.03;1.08;;;;;;;;;;2080634;28;20033;-71
2022/03/04 01:55:27;;;;;;;7.60;1.10;;;;;;;;;;2081001;28;20026;-70
2022/03/04 01:56:46;;;;;;;8.82;1.20;;;;;;;;;;2080364;28;20041;-71
2022/03/04 01:58:05;;;;;;;4.53;0.70;;;;;;;;;;2080774;28;20026;-70
2022/03/04 01:59:24;;;;;;;5.78;1.35;;;;;;;;;;2079620;28;20109;-70
2022/03/04 02:00:43;;;;;;;3.53;0.70;;;;;;;;;;2080494;28;20518;-71
2022/03/04 02:02:02;;;;;;;2.67;0.85;;;;;;;;;;2080024;28;20057;-70
2022/03/04 02:03:23;;;;;;;2.90;1.20;;;;;;;;;;2080028;28;20041;-71
2022/03/04 02:04:42;;;;;;;1.70;0.85;;;;;;;;;;2079683;28;20395;-71
2022/03/04 02:06:01;;;;;;;6.55;1.27;;;;;;;;;;2080598;28;20037;-70
2022/03/04 02:07:20;;;;;;;5.55;0.88;;;;;;;;;;2079015;28;20412;-70
2022/03/04 02:08:39;;;;;;;2.55;0.77;;;;;;;;;;2080967;28;20060;-70
2022/03/04 02:09:58;;;;;;;6.00;0.88;;;;;;;;;;2079709;28;20029;-70
2022/03/04 02:11:17;;;;;;;1.77;0.75;;;;;;;;;;2080696;28;20148;-71
2022/03/04 02:12:36;;;;;;;3.97;1.17;;;;;;;;;;2079648;28;20026;-70
2022/03/04 02:13:55;;;;;;;1.73;0.80;;;;;;;;;;2080631;28;20033;-70
2022/03/04 02:15:14;;;;;;;3.67;1.25;;;;;;;;;;2079127;28;20512;-71
2022/03/04 02:16:42;;;;;;;4.32;1.23;;;;;;;;;;2080323;28;20038;-71
2022/03/04 02:18:09;;;;;;;2.08;0.80;;;;;;;;;;2080332;28;20026;-71
2022/03/04 02:19:28;;;;;;;3.10;0.82;;;;;;;;;;2079771;28;20022;-70
2022/03/04 02:20:50;;;;;;;6.25;1.00;;;;;;;;;;2078633;28;20025;-70
2022/03/04 02:22:09;;;;;;;3.88;0.93;;;;;;;;;;2080213;28;20108;-71
2022/03/04 02:23:28;;;;;;;4.07;1.20;;;;;;;;;;2080761;28;20129;-70
2022/03/04 02:24:47;;;;;;;3.35;0.98;;;;;;;;;;2080294;28;20041;-70
2022/03/04 02:26:06;;;;;;;9.82;1.23;;;;;;;;;;2079187;28;20038;-70
2022/03/04 02:27:25;;;;;;;3.35;0.85;;;;;;;;;;2080455;28;20037;-71
2022/03/04 02:28:45;;;;;;;5.25;0.90;;;;;;;;;;2080648;28;20053;-71
2022/03/04 02:30:05;;;;;;;2.40;0.70;;;;;;;;;;2080211;28;20061;-70
2022/03/04 02:31:24;;;;;;;4.35;0.80;;;;;;;;;;2079915;28;20041;-71
2022/03/04 02:32:42;;;;;;;2.10;0.98;;;;;;;;;;2080464;28;20037;-69
2022/03/04 02:34:02;;;;;;;4.18;0.90;;;;;;;;;;2080034;28;20476;-70
2022/03/04 02:35:21;;;;;;;6.45;0.95;;;;;;;;;;2081030;28;20498;-71
2022/03/04 02:36:39;;;;;;;4.22;1.17;;;;;;;;;;2078895;28;20041;-71
2022/03/04 02:37:58;;;;;;;4.38;1.17;;;;;;;;;;2080297;28;20021;-70
2022/03/04 02:39:17;;;;;;;5.80;1.48;;;;;;;;;;2080745;28;20030;-71
2022/03/04 02:40:36;;;;;;;5.00;1.25;;;;;;;;;;2080930;28;20038;-70
2022/03/04 02:41:55;;;;;;;3.25;0.85;;;;;;;;;;2079875;28;20506;-71
2022/03/04 02:43:14;;;;;;;2.17;0.80;;;;;;;;;;2076928;28;20459;-71
2022/03/04 02:44:33;;;;;;;8.02;1.08;;;;;;;;;;2080378;28;20030;-71
2022/03/04 02:45:52;;;;;;;2.75;1.00;;;;;;;;;;2080499;28;20551;-70
2022/03/04 02:47:11;;;;;;;4.63;0.98;;;;;;;;;;2079735;28;20029;-71
2022/03/04 02:48:30;;;;;;;3.10;0.65;;;;;;;;;;2080172;28;20065;-71
2022/03/04 02:49:49;;;;;;;6.88;1.27;;;;;;;;;;2079300;28;20041;-69
2022/03/04 02:51:08;;;;;;;4.90;1.10;;;;;;;;;;2079967;28;20026;-67
2022/03/04 02:52:26;;;;;;;5.50;1.13;;;;;;;;;;2080795;28;20487;-72
2022/03/04 02:53:46;;;;;;;1.85;0.90;;;;;;;;;;2080220;28;20037;-70
2022/03/04 02:55:10;;;;;;;2.90;0.90;;;;;;;;;;2080354;28;20030;-69
2022/03/04 02:56:29;;;;;;;4.53;1.05;;;;;;;;;;2079256;28;20049;-71
2022/03/04 02:57:48;;;;;;;3.47;0.85;;;;;;;;;;2080807;28;20030;-70
2022/03/04 02:59:07;;;;;;;3.60;0.90;;;;;;;;;;2080309;28;20536;-72
2022/03/04 03:00:25;;;;;;;1.52;0.80;;;;;;;;;;2079637;28;20476;-70
2022/03/04 03:01:44;;;;;;;9.25;1.35;;;;;;;;;;2078658;28;20030;-70
2022/03/04 03:03:03;;;;;;;6.25;1.42;;;;;;;;;;2077157;28;20017;-72
2022/03/04 03:04:22;;;;;;;3.70;0.75;;;;;;;;;;2079406;28;20037;-71
2022/03/04 03:05:41;;;;;;;5.38;1.13;;;;;;;;;;2079885;28;20451;-70
2022/03/04 03:07:00;;;;;;;2.65;0.70;;;;;;;;;;2079926;28;20380;-71
2022/03/04 03:08:19;;;;;;;3.00;0.80;;;;;;;;;;2080119;28;20128;-71
2022/03/04 03:09:38;;;;;;;4.90;0.90;;;;;;;;;;2079455;28;20535;-70
2022/03/04 03:10:56;;;;;;;6.40;1.20;;;;;;;;;;2076541;28;20056;-71
2022/03/04 03:12:15;;;;;;;5.25;0.82;;;;;;;;;;2078319;28;20034;-69
2022/03/04 03:13:34;;;;;;;4.60;1.02;;;;;;;;;;2076665;28;20037;-71
2022/03/04 03:14:53;;;;;;;3.25;1.48;;;;;;;;;;2080154;28;20025;-70
2022/03/04 03:16:12;;;;;;;5.72;0.80;;;;;;;;;;2080375;28;20438;-72
2022/03/04 03:17:31;;;;;;;2.05;0.88;;;;;;;;;;2080030;28;20034;-72
2022/03/04 03:18:50;;;;;;;2.97;1.05;;;;;;;;;;2079478;28;20037;-71
2022/03/04 03:20:10;;;;;;;3.35;0.93;;;;;;;;;;2080077;28;20108;-71
2022/03/04 03:21:29;;;;;;;4.72;1.20;;;;;;;;;;2079932;28;20034;-71
2022/03/04 03:22:48;;;;;;;7.82;1.05;;;;;;;;;;2078671;28;20018;-71
2022/03/04 03:24:07;;;;;;;6.25;0.90;;;;;;;;;;2080355;28;20041;-71
2022/03/04 03:25:26;;;;;;;5.43;1.15;;;;;;;;;;2080087;28;20029;-71
2022/03/04 03:26:45;;;;;;;0.57;0.40;;;;;;;;;;2079251;28;20026;-70
2022/03/04 03:28:04;;;;;;;4.07;1.00;;;;;;;;;;2079083;28;20029;-72
2022/03/04 03:29:23;;;;;;;3.90;1.00;;;;;;;;;;2081026;28;20045;-72
2022/03/04 03:30:42;;;;;;;8.90;1.58;;;;;;;;;;2079666;28;20033;-71
2022/03/04 03:32:01;;;;;;;3.85;1.00;;;;;;;;;;2080275;28;20025;-71
2022/03/04 03:33:20;;;;;;;1.17;0.98;;;;;;;;;;2078650;28;20038;-71
2022/03/04 03:34:39;;;;;;;5.13;1.40;;;;;;;;;;2079915;28;20496;-71
2022/03/04 03:35:58;;;;;;;5.03;1.08;;;;;;;;;;2080520;28;20033;-72
2022/03/04 03:37:17;;;;;;;1.98;0.82;;;;;;;;;;2080037;28;20026;-71
2022/03/04 03:38:36;;;;;;;4.43;0.90;;;;;;;;;;2078705;28;20029;-71
2022/03/04 03:39:55;;;;;;;1.48;0.70;;;;;;;;;;2080338;28;21248;-71
2022/03/04 03:41:14;;;;;;;5.88;0.75;;;;;;;;;;2079818;28;20488;-71
2022/03/04 03:42:33;;;;;;;8.40;1.10;;;;;;;;;;2080637;28;20037;-71
2022/03/04 03:43:53;;;;;;;6.00;0.90;;;;;;;;;;2079005;28;20069;-72
2022/03/04 03:45:13;;;;;;;4.55;0.80;;;;;;;;;;2079509;28;20033;-70
2022/03/04 03:46:31;;;;;;;4.53;0.98;;;;;;;;;;2079096;28;20495;-71
2022/03/04 03:47:52;;;;;;;5.05;0.80;;;;;;;;;;2080314;28;20069;-71
2022/03/04 03:49:11;;;;;;;4.13;0.82;;;;;;;;;;2080361;28;20034;-70
2022/03/04 03:50:31;;;;;;;1.92;0.93;;;;;;;;;;2080416;28;20025;-69
2022/03/04 03:51:49;;;;;;;5.65;0.82;;;;;;;;;;2079302;28;20116;-69
2022/03/04 03:53:09;;;;;;;5.50;0.70;;;;;;;;;;2079887;28;20034;-71
2022/03/04 03:54:28;;;;;;;3.67;1.10;;;;;;;;;;2079549;28;20037;-70
2022/03/04 03:55:47;;;;;;;9.38;1.20;;;;;;;;;;2080225;28;20408;-71
2022/03/04 03:57:06;;;;;;;2.55;0.82;;;;;;;;;;2080845;28;20488;-71
2022/03/04 03:58:25;;;;;;;5.38;0.82;;;;;;;;;;2080519;28;20025;-71
2022/03/04 03:59:44;;;;;;;3.10;1.13;;;;;;;;;;2079837;28;20041;-71
2022/03/04 04:01:03;;;;;;;2.10;1.02;;;;;;;;;;2079744;28;20499;-71
2022/03/04 04:02:22;;;;;;;5.22;1.23;;;;;;;;;;2078496;28;20076;-71
2022/03/04 04:03:41;;;;;;;2.75;0.80;;;;;;;;;;2079541;28;20034;-71
2022/03/04 04:05:00;;;;;;;1.88;1.08;;;;;;;;;;2079828;28;20056;-71
2022/03/04 04:06:19;;;;;;;4.65;0.70;;;;;;;;;;2079464;28;20066;-71
2022/03/04 04:07:37;;;;;;;5.35;1.38;;;;;;;;;;2072011;28;20030;-71
2022/03/04 04:08:56;;;;;;;3.67;0.70;;;;;;;;;;2077740;28;20436;-71
2022/03/04 04:10:15;;;;;;;6.15;1.55;;;;;;;;;;2079927;28;20042;-71
2022/03/04 04:11:35;;;;;;;5.10;0.85;;;;;;;;;;2080149;28;20041;-71
2022/03/04 04:12:54;;;;;;;4.72;0.75;;;;;;;;;;2079071;28;20153;-71
2022/03/04 04:14:13;;;;;;;6.22;1.30;;;;;;;;;;2078193;28;20041;-71
2022/03/04 04:15:32;;;;;;;6.05;0.95;;;;;;;;;;2078437;28;20026;-70
2022/03/04 04:16:51;;;;;;;2.72;0.70;;;;;;;;;;2080434;28;20025;-70
2022/03/04 04:18:10;;;;;;;5.55;1.02;;;;;;;;;;2079842;28;20439;-69
2022/03/04 04:19:29;;;;;;;6.10;1.13;;;;;;;;;;2079222;28;20026;-70
2022/03/04 04:20:48;;;;;;;3.97;1.00;;;;;;;;;;2080041;28;20579;-71
2022/03/04 04:22:06;;;;;;;4.03;1.17;;;;;;;;;;2079880;28;20065;-71
2022/03/04 04:23:25;;;;;;;3.92;0.90;;;;;;;;;;2079418;28;20029;-70
2022/03/04 04:24:44;;;;;;;4.93;0.60;;;;;;;;;;2078503;28;20109;-70
2022/03/04 04:26:05;;;;;;;5.03;0.80;;;;;;;;;;2080251;28;20029;-71
2022/03/04 04:27:24;;;;;;;2.10;0.82;;;;;;;;;;2079546;28;20419;-70
2022/03/04 04:28:43;;;;;;;3.45;1.00;;;;;;;;;;2078916;28;20038;-71
2022/03/04 04:30:03;;;;;;;4.90;0.98;;;;;;;;;;2078497;28;20033;-70
2022/03/04 04:31:22;;;;;;;1.60;1.17;;;;;;;;;;2082027;28;20029;-70
2022/03/04 04:32:40;;;;;;;1.17;0.63;;;;;;;;;;2081507;28;20030;-71
2022/03/04 04:34:01;;;;;;;3.00;1.17;;;;;;;;;;2080390;28;20045;-70
2022/03/04 04:35:20;;;;;;;4.40;0.70;;;;;;;;;;2080304;28;20033;-71
2022/03/04 04:36:38;;;;;;;2.97;0.90;;;;;;;;;;2080494;28;20025;-70
2022/03/04 04:37:57;;;;;;;7.60;1.20;;;;;;;;;;2080716;28;20022;-70
2022/03/04 04:39:16;;;;;;;2.63;0.82;;;;;;;;;;2081696;28;20037;-70
2022/03/04 04:40:35;;;;;;;2.22;1.02;;;;;;;;;;2080362;28;20388;-69
2022/03/04 04:41:54;;;;;;;2.55;0.85;;;;;;;;;;2080664;28;20030;-70
2022/03/04 04:43:13;;;;;;;3.17;0.70;;;;;;;;;;2081470;28;20487;-71
2022/03/04 04:44:32;;;;;;;3.90;1.00;;;;;;;;;;2080751;28;20037;-71
2022/03/04 04:45:51;;;;;;;4.38;1.00;;;;;;;;;;2076429;28;20030;-70
2022/03/04 04:47:12;;;;;;;2.55;0.75;;;;;;;;;;2081199;28;20025;-70
2022/03/04 04:48:31;;;;;;;4.60;1.10;;;;;;;;;;2079228;28;20431;-70
2022/03/04 04:49:50;;;;;;;3.42;1.05;;;;;;;;;;2080570;28;20096;-71
2022/03/04 04:51:09;;;;;;;5.03;0.80;;;;;;;;;;2080587;28;20117;-71
2022/03/04 04:52:28;;;;;;;3.22;1.08;;;;;;;;;;2081410;28;20033;-70
2022/03/04 04:53:47;;;;;;;1.90;0.88;;;;;;;;;;2082048;28;20065;-70
2022/03/04 04:55:06;;;;;;;3.63;1.05;;;;;;;;;;2080917;28;20021;-72
2022/03/04 04:56:25;;;;;;;2.08;1.20;;;;;;;;;;2079943;28;20112;-71
2022/03/04 04:57:44;;;;;;;3.92;1.08;;;;;;;;;;2080693;28;20481;-71
2022/03/04 04:59:03;;;;;;;4.88;1.08;;;;;;;;;;2081153;28;20041;-71
2022/03/04 05:00:22;;;;;;;3.28;0.80;;;;;;;;;;2079076;28;20038;-70
2022/03/04 05:01:40;;;;;;;4.28;1.10;;;;;;;;;;2076380;28;20033;-71
2022/03/04 05:02:59;;;;;;;3.40;1.00;;;;;;;;;;2076786;28;20045;-71
2022/03/04 05:04:18;;;;;;;2.47;0.93;;;;;;;;;;2080499;28;20025;-70
2022/03/04 05:05:37;;;;;;;6.00;1.20;;;;;;;;;;2079629;28;20404;-71
2022/03/04 05:06:56;;;;;;;2.03;1.00;;;;;;;;;;2080552;28;20037;-71
2022/03/04 05:08:15;;;;;;;5.85;0.90;;;;;;;;;;2081502;28;20033;-70
2022/03/04 05:09:34;;;;;;;4.72;1.02;;;;;;;;;;2081366;28;20108;-71
2022/03/04 05:10:54;;;;;;;5.07;1.40;;;;;;;;;;2079621;28;20038;-71
2022/03/04 05:12:12;;;;;;;5.18;0.82;;;;;;;;;;2079386;28;20033;-71
2022/03/04 05:13:31;;;;;;;4.72;1.13;;;;;;;;;;2081422;28;20108;-70
2022/03/04 05:14:50;;;;;;;2.88;1.02;;;;;;;;;;2081403;28;20503;-71
2022/03/04 05:16:09;;;;;;;5.32;0.90;;;;;;;;;;2080284;28;20507;-71
2022/03/04 05:17:28;;;;;;;8.18;1.02;;;;;;;;;;2079762;28;20041;-70
2022/03/04 05:18:47;;;;;;;2.80;1.08;;;;;;;;;;2081790;28;20415;-70
2022/03/04 05:20:06;;;;;;;6.03;1.30;;;;;;;;;;2081163;28;20033;-70
2022/03/04 05:21:25;;;;;;;4.63;1.08;;;;;;;;;;2079723;28;20030;-70
2022/03/04 05:22:44;;;;;;;8.32;1.17;;;;;;;;;;2081365;28;20038;-71
2022/03/04 05:24:06;;;;;;;5.28;1.02;;;;;;;;;;2081388;28;20033;-70
2022/03/04 05:25:25;;;;;;;3.97;1.00;;;;;;;;;;2079618;28;20434;-71
2022/03/04 05:26:44;;;;;;;2.80;1.25;;;;;;;;;;2080056;28;20029;-71
2022/03/04 05:28:03;;;;;;;7.40;1.45;;;;;;;;;;2081059;28;20034;-71
2022/03/04 05:29:21;;;;;;;2.53;0.90;;;;;;;;;;2081409;28;20125;-71
2022/03/04 05:30:40;;;;;;;4.80;1.05;;;;;;;;;;2079630;28;20451;-71
2022/03/04 05:32:00;;;;;;;8.20;1.00;;;;;;;;;;2078715;28;20029;-71
2022/03/04 05:33:19;;;;;;;4.35;0.80;;;;;;;;;;2080175;28;20029;-71
2022/03/04 05:34:37;;;;;;;4.53;1.48;;;;;;;;;;2080458;28;20056;-70
2022/03/04 05:35:56;;;;;;;5.32;0.90;;;;;;;;;;2080823;28;20025;-71
2022/03/04 05:37:15;;;;;;;7.28;1.08;;;;;;;;;;2076175;28;20055;-71
2022/03/04 05:38:34;;;;;;;3.80;0.80;;;;;;;;;;2080657;28;20033;-71
2022/03/04 05:39:53;;;;;;;3.22;0.90;;;;;;;;;;2080234;28;20037;-71
2022/03/04 05:41:12;;;;;;;2.63;0.80;;;;;;;;;;2080180;28;20060;-71
2022/03/04 05:42:31;;;;;;;3.92;1.00;;;;;;;;;;2080175;28;20029;-71
2022/03/04 05:43:50;;;;;;;3.58;0.68;;;;;;;;;;2081249;28;20029;-71
2022/03/04 05:45:10;;;;;;;2.45;1.00;;;;;;;;;;2080511;28;20033;-70
2022/03/04 05:46:28;;;;;;;4.60;0.90;;;;;;;;;;2080495;28;20041;-71
2022/03/04 05:47:47;;;;;;;15.35;1.70;;;;;;;;;;2077883;28;20033;-70
2022/03/04 05:49:06;;;;;;;2.95;0.85;;;;;;;;;;2080809;28;20037;-71
2022/03/04 05:50:25;;;;;;;4.68;1.27;;;;;;;;;;2080831;28;20073;-70
2022/03/04 05:51:44;;;;;;;6.28;1.13;;;;;;;;;;2080541;28;20029;-70
2022/03/04 05:53:03;;;;;;;3.60;0.93;;;;;;;;;;2078817;28;20037;-71
2022/03/04 05:54:22;;;;;;;3.75;1.35;;;;;;;;;;2079582;28;20046;-70
2022/03/04 05:55:41;;;;;;;9.25;1.45;;;;;;;;;;2080102;28;20025;-70
2022/03/04 05:57:00;;;;;;;5.15;1.40;;;;;;;;;;2081319;28;20057;-70
2022/03/04 05:58:19;;;;;;;6.90;1.75;;;;;;;;;;2080401;28;20292;-71
2022/03/04 05:59:38;;;;;;;3.90;1.33;;;;;;;;;;2076344;28;20029;-71
2022/03/04 06:00:56;;;;;;;3.25;0.88;;;;;;;;;;2079901;28;20037;-70
2022/03/04 06:02:15;;;;;;;4.43;1.45;;;;;;;;;;2079994;28;20484;-70
2022/03/04 06:03:35;;;;;;;3.15;1.13;;;;;;;;;;2080401;28;20045;-70
2022/03/04 06:04:54;;;;;;;4.63;1.00;;;;;;;;;;2080085;28;20065;-70
2022/03/04 06:06:13;;;;;;;3.92;1.00;;;;;;;;;;2080662;28;20030;-70
2022/03/04 06:07:33;;;;;;;7.32;1.05;;;;;;;;;;2080324;28;20048;-69
2022/03/04 06:08:53;;;;;;;4.18;1.70;;;;;;;;;;2080270;28;20038;-70
2022/03/04 06:10:11;;;;;;;3.88;1.15;;;;;;;;;;2080858;28;20427;-70
2022/03/04 06:11:30;;;;;;;6.03;1.10;;;;;;;;;;2080581;28;20022;-70
2022/03/04 06:12:49;;;;;;;6.38;1.67;;;;;;;;;;2079810;28;20037;-70
2022/03/04 06:14:08;;;;;;;3.80;1.15;;;;;;;;;;2080253;28;20057;-70
2022/03/04 06:15:27;;;;;;;7.47;1.17;;;;;;;;;;2079532;28;20025;-69
2022/03/04 06:16:46;;;;;;;3.72;0.93;;;;;;;;;;2080500;28;20109;-69
2022/03/04 06:18:05;;;;;;;1.83;0.93;;;;;;;;;;2079576;28;20470;-70
2022/03/04 06:19:24;;;;;;;7.70;1.40;;;;;;;;;;2081064;28;20442;-70
2022/03/04 06:20:44;;;;;;;9.32;1.50;;;;;;;;;;2079310;28;20108;-70
2022/03/04 06:22:02;;;;;;;4.47;0.93;;;;;;;;;;2080313;28;20022;-71
2022/03/04 06:23:22;;;;;;;5.55;1.52;;;;;;;;;;2079226;28;20423;-70
2022/03/04 06:24:41;;;;;;;4.60;1.27;;;;;;;;;;2080448;28;20053;-70
2022/03/04 06:26:00;;;;;;;3.13;1.10;;;;;;;;;;2080815;28;20029;-71
2022/03/04 06:27:19;;;;;;;6.65;1.48;;;;;;;;;;2079241;28;21059;-68
2022/03/04 06:28:38;;;;;;;6.95;1.40;;;;;;;;;;2079609;28;20046;-68
2022/03/04 06:29:57;;;;;;;3.30;1.00;;;;;;;;;;2080183;28;20033;-68
2022/03/04 06:31:16;;;;;;;5.18;1.10;;;;;;;;;;2079624;28;20495;-69
2022/03/04 06:32:35;;;;;;;7.18;1.25;;;;;;;;;;2080815;28;20029;-70
2022/03/04 06:33:54;;;;;;;3.55;0.90;;;;;;;;;;2078821;28;20033;-71
2022/03/04 06:35:12;;;;;;;3.70;1.10;;;;;;;;;;2080922;28;20033;-69
2022/03/04 06:36:31;;;;;;;7.75;1.65;;;;;;;;;;2080169;28;20022;-72
2022/03/04 06:37:50;;;;;;;5.60;1.15;;;;;;;;;;2080936;28;20479;-69
2022/03/04 06:39:09;;;;;;;8.07;1.48;;;;;;;;;;2080412;28;20037;-71
2022/03/04 06:40:28;;;;;;;3.67;1.75;;;;;;;;;;2080354;28;20033;-69
2022/03/04 06:41:48;;;;;;;4.85;1.40;;;;;;;;;;2080638;28;20030;-70
2022/03/04 06:43:08;;;;;;;4.00;1.08;;;;;;;;;;2077998;28;20034;-71
2022/03/04 06:44:27;;;;;;;5.65;1.13;;;;;;;;;;2079099;28;20459;-71
2022/03/04 06:45:46;;;;;;;5.80;1.45;;;;;;;;;;2080661;28;20060;-69
2022/03/04 06:47:05;;;;;;;6.50;1.55;;;;;;;;;;2079779;28;20025;-69
2022/03/04 06:48:26;;;;;;;4.45;1.27;;;;;;;;;;2080746;28;20029;-70
2022/03/04 06:49:45;;;;;;;9.00;1.85;;;;;;;;;;2078357;28;20643;-70
2022/03/04 06:51:04;;;;;;;9.88;1.50;;;;;;;;;;2079711;28;20041;-70
2022/03/04 06:52:24;;;;;;;6.97;1.75;;;;;;;;;;2079984;28;20033;-70
2022/03/04 06:53:42;;;;;;;6.43;1.50;;;;;;;;;;2080611;28;20034;-70
2022/03/04 06:55:04;;;;;;;3.53;1.20;;;;;;;;;;2079044;28;20061;-69
2022/03/04 06:56:23;;;;;;;5.55;1.75;;;;;;;;;;2079463;28;20034;-71
2022/03/04 06:57:42;;;;;;;3.55;1.20;;;;;;;;;;2079426;28;20476;-71
2022/03/04 06:59:01;;;;;;;9.50;1.60;;;;;;;;;;2080021;28;20021;-70
2022/03/04 07:00:20;;;;;;;3.75;1.33;;;;;;;;;;2081090;28;20046;-69
2022/03/04 07:01:39;;;;;;;11.02;1.70;;;;;;;;;;2080299;28;20500;-71
2022/03/04 07:02:58;;;;;;;9.15;1.75;;;;;;;;;;2079623;28;20116;-69
2022/03/04 07:04:17;;;;;;;7.65;1.63;;;;;;;;;;2079015;28;20053;-70
2022/03/04 07:05:36;;;;;;;9.10;1.85;;;;;;;;;;2079851;28;20038;-69
2022/03/04 07:06:55;;;;;;;8.50;2.00;;;;;;;;;;2080375;28;20116;-70
2022/03/04 07:08:14;;;;;;;6.55;1.42;;;;;;;;;;2080236;28;20116;-69
2022/03/04 07:09:33;;;;;;;10.15;1.85;;;;;;;;;;2079360;28;20057;-69
2022/03/04 07:10:52;;;;;;;6.57;1.50;;;;;;;;;;2079053;28;20033;-68
2022/03/04 07:12:11;;;;;;;8.32;1.83;;;;;;;;;;2078517;28;20116;-69
2022/03/04 07:13:30;;;;;;;5.82;1.85;;;;;;;;;;2080114;28;20045;-67
2022/03/04 07:14:50;;;;;;;7.25;2.20;;;;;;;;;;2079023;28;20037;-69
2022/03/04 07:16:09;;;;;;;9.82;1.73;;;;;;;;;;2079708;28;20029;-71
2022/03/04 07:17:29;;;;;;;8.65;3.13;;;;;;;;;;2076295;28;20026;-69
2022/03/04 07:18:47;;;;;;;13.40;2.88;;;;;;;;;;2079427;28;20392;-70
2022/03/04 07:20:07;;;;;;;2.97;1.98;;;;;;;;;;2079064;28;20042;-70
2022/03/04 07:21:26;;;;;;;8.45;2.08;;;;;;;;;;2079930;28;20045;-70
2022/03/04 07:22:45;;;;;;;9.23;2.15;;;;;;;;;;2080620;28;20026;-68
2022/03/04 07:24:04;;;;;;;5.13;2.00;;;;;;;;;;2079938;28;20018;-70
2022/03/04 07:25:23;;;;;;;14.27;2.40;;;;;;;;;;2078162;28;20029;-70
2022/03/04 07:26:42;;;;;;;8.02;2.83;;;;;;;;;;2080312;28;20065;-70
2022/03/04 07:28:01;;;;;;;5.45;1.95;;;;;;;;;;2078878;28;20034;-69
2022/03/04 07:29:20;;;;;;;10.40;3.00;;;;;;;;;;2075982;28;20527;-69
2022/03/04 07:30:39;;;;;;;9.00;3.08;;;;;;;;;;2074582;28;20057;-69
2022/03/04 07:31:58;;;;;;;6.30;1.65;;;;;;;;;;2077614;28;20475;-70
2022/03/04 07:33:17;;;;;;;7.53;1.83;;;;;;;;;;2079042;28;20033;-72
2022/03/04 07:34:36;;;;;;;9.02;2.00;;;;;;;;;;2079802;28;20029;-72
2022/03/04 07:35:55;;;;;;;3.30;1.90;;;;;;;;;;2079238;28;20388;-71
2022/03/04 07:37:13;;;;;;;7.40;2.17;;;;;;;;;;2079583;28;20025;-71
2022/03/04 07:38:32;;;;;;;3.03;1.90;;;;;;;;;;2079419;28;20034;-71
2022/03/04 07:39:51;;;;;;;3.88;1.98;;;;;;;;;;2079180;28;20037;-72
2022/03/04 07:41:10;;;;;;;8.63;2.95;;;;;;;;;;2077670;28;20017;-71
2022/03/04 07:42:29;;;;;;;4.70;1.50;;;;;;;;;;2079993;28;20160;-71
2022/03/04 07:43:48;;;;;;;6.18;1.70;;;;;;;;;;2080017;28;20041;-69
2022/03/04 07:45:08;;;;;;;3.80;1.40;;;;;;;;;;2079877;28;20026;-70
2022/03/04 07:46:27;;;;;;;5.68;1.83;;;;;;;;;;2078653;28;20404;-70
2022/03/04 07:47:46;;;;;;;9.52;1.60;;;;;;;;;;2078629;28;20033;-70
2022/03/04 07:49:05;;;;;;;8.52;2.45;;;;;;;;;;2080371;28;20029;-71
2022/03/04 07:50:23;;;;;;;10.90;1.60;;;;;;;;;;2080050;28;20033;-71
2022/03/04 07:51:43;;;;;;;3.80;1.83;;;;;;;;;;2078936;28;20045;-69
2022/03/04 07:53:02;;;;;;;2.47;1.27;;;;;;;;;;2079572;28;20025;-69
2022/03/04 07:54:21;;;;;;;5.25;1.60;;;;;;;;;;2078864;28;20065;-70